createdAt,value
2017-05-06T00:00:38.472Z,142.74
2017-05-06T00:03:07.690Z,129.38
2017-05-06T00:05:37.136Z,125.12
2017-05-06T00:08:07.129Z,120.78
2017-05-06T00:10:36.479Z,414.96
2017-05-06T00:13:05.703Z,271.40
2017-05-06T00:15:34.994Z,167.80
2017-05-06T00:18:04.233Z,129.26
2017-05-06T00:20:33.781Z,111.92
2017-05-06T00:23:03.000Z,101.66
2017-05-06T00:25:32.333Z,101.72
2017-05-06T00:28:02.314Z,94.58
2017-05-06T00:30:31.555Z,96.60
2017-05-06T00:33:01.069Z,95.90
2017-05-06T00:35:30.329Z,100.24
2017-05-06T00:38:00.989Z,225.86
2017-05-06T00:40:30.986Z,509.98
2017-05-06T00:43:01.087Z,332.18
2017-05-06T00:45:30.338Z,227.64
2017-05-06T00:48:00.364Z,205.82
2017-05-06T00:50:29.604Z,161.84
2017-05-06T00:52:58.903Z,276.14
2017-05-06T00:55:28.813Z,277.68
2017-05-06T00:57:58.838Z,254.14
2017-05-06T01:00:28.116Z,248.90
2017-05-06T01:02:57.405Z,256.74
2017-05-06T01:05:26.645Z,255.80
2017-05-06T01:07:56.718Z,235.12
2017-05-06T01:10:26.712Z,234.54
2017-05-06T01:12:56.743Z,223.08
2017-05-06T01:15:26.729Z,228.90
2017-05-06T01:17:56.034Z,221.36
2017-05-06T01:20:25.527Z,216.32
2017-05-06T01:22:54.780Z,215.26
2017-05-06T01:25:24.029Z,218.02
2017-05-06T01:27:53.413Z,209.82
2017-05-06T01:30:22.677Z,204.34
2017-05-06T01:32:51.902Z,204.40
2017-05-06T01:35:21.160Z,204.82
2017-05-06T01:37:50.388Z,201.44
2017-05-06T01:40:20.435Z,198.32
2017-05-06T01:42:49.684Z,194.46
2017-05-06T01:45:19.987Z,197.06
2017-05-06T01:47:49.212Z,198.08
2017-05-06T01:50:19.216Z,185.98
2017-05-06T01:52:48.705Z,189.72
2017-05-06T01:55:18.740Z,193.76
2017-05-06T01:57:48.785Z,193.00
2017-05-06T02:00:18.054Z,192.46
2017-05-06T02:02:47.329Z,186.96
2017-05-06T02:05:17.367Z,186.22
2017-05-06T02:07:47.763Z,186.68
2017-05-06T02:10:17.818Z,184.68
2017-05-06T02:12:47.401Z,185.96
2017-05-06T02:15:16.672Z,185.24
2017-05-06T02:17:45.917Z,186.34
2017-05-06T02:20:15.188Z,180.54
2017-05-06T02:22:45.200Z,183.62
2017-05-06T02:25:15.227Z,183.76
2017-05-06T02:27:44.450Z,180.28
2017-05-06T02:30:14.668Z,183.38
2017-05-06T02:32:44.751Z,180.22
2017-05-06T02:35:15.002Z,181.58
2017-05-06T02:37:44.221Z,182.46
2017-05-06T02:40:13.572Z,174.78
2017-05-06T02:42:43.723Z,172.08
2017-05-06T02:45:12.970Z,172.78
2017-05-06T02:47:43.657Z,175.96
2017-05-06T02:50:12.954Z,174.48
2017-05-06T02:52:42.183Z,171.38
2017-05-06T02:55:11.435Z,175.24
2017-05-06T02:57:40.666Z,170.40
2017-05-06T03:00:09.932Z,172.08
2017-05-06T03:02:39.155Z,175.38
2017-05-06T03:05:09.294Z,169.92
2017-05-06T03:07:40.074Z,169.84
2017-05-06T03:10:09.381Z,164.06
2017-05-06T03:12:39.379Z,166.12
2017-05-06T03:15:08.665Z,165.24
2017-05-06T03:17:39.395Z,167.00
2017-05-06T03:20:09.514Z,170.68
2017-05-06T03:22:38.799Z,161.50
2017-05-06T03:25:08.368Z,163.38
2017-05-06T03:27:37.600Z,169.20
2017-05-06T03:30:06.863Z,164.54
2017-05-06T03:32:36.336Z,164.90
2017-05-06T03:35:06.374Z,162.52
2017-05-06T03:37:36.358Z,158.88
2017-05-06T03:40:06.310Z,161.78
2017-05-06T03:42:36.338Z,157.44
2017-05-06T03:45:05.610Z,156.68
2017-05-06T03:47:35.648Z,159.86
2017-05-06T03:50:04.941Z,157.58
2017-05-06T03:52:34.167Z,156.32
2017-05-06T03:55:04.131Z,156.46
2017-05-06T03:57:34.172Z,157.30
2017-05-06T04:00:04.201Z,156.42
2017-05-06T04:02:33.442Z,152.50
2017-05-06T04:05:03.591Z,155.30
2017-05-06T04:07:32.799Z,152.68
2017-05-06T04:10:02.098Z,154.76
2017-05-06T04:12:32.125Z,154.42
2017-05-06T04:15:01.227Z,152.90
2017-05-06T04:17:31.274Z,158.14
2017-05-06T04:20:00.541Z,152.78
2017-05-06T04:22:29.817Z,151.80
2017-05-06T04:24:59.082Z,151.56
2017-05-06T04:27:29.122Z,154.06
2017-05-06T04:29:59.121Z,153.78
2017-05-06T04:32:29.864Z,152.82
2017-05-06T04:34:59.960Z,152.74
2017-05-06T04:37:29.988Z,150.04
2017-05-06T04:39:59.993Z,148.76
2017-05-06T04:42:29.939Z,149.80
2017-05-06T04:44:59.182Z,151.06
2017-05-06T04:47:28.465Z,151.16
2017-05-06T04:49:58.551Z,147.92
2017-05-06T04:52:27.820Z,148.90
2017-05-06T04:54:57.816Z,148.60
2017-05-06T04:57:27.106Z,147.30
2017-05-06T04:59:57.123Z,146.82
2017-05-06T05:02:27.852Z,150.30
2017-05-06T05:04:57.110Z,146.50
2017-05-06T05:07:27.833Z,146.16
2017-05-06T05:09:57.059Z,147.86
2017-05-06T05:12:26.336Z,143.42
2017-05-06T05:14:57.016Z,143.36
2017-05-06T05:17:26.285Z,143.10
2017-05-06T05:19:56.359Z,147.36
2017-05-06T05:22:26.388Z,144.38
2017-05-06T05:24:55.631Z,146.12
2017-05-06T05:27:24.914Z,145.08
2017-05-06T05:29:54.863Z,142.60
2017-05-06T05:32:25.586Z,145.30
2017-05-06T05:34:54.863Z,142.78
2017-05-06T05:37:24.088Z,146.60
2017-05-06T05:39:53.332Z,141.76
2017-05-06T05:42:23.321Z,147.88
2017-05-06T05:44:52.571Z,144.84
2017-05-06T05:47:22.643Z,144.64
2017-05-06T05:49:52.692Z,143.00
2017-05-06T05:52:21.953Z,145.66
2017-05-06T05:54:51.195Z,143.06
2017-05-06T05:57:21.171Z,144.36
2017-05-06T05:59:51.177Z,139.16
2017-05-06T06:02:21.241Z,140.40
2017-05-06T06:04:50.449Z,139.74
2017-05-06T06:07:19.765Z,138.70
2017-05-06T06:09:48.998Z,135.74
2017-05-06T06:12:19.024Z,137.82
2017-05-06T06:14:49.032Z,137.10
2017-05-06T06:17:18.352Z,136.16
2017-05-06T06:19:48.364Z,137.28
2017-05-06T06:22:17.631Z,132.88
2017-05-06T06:24:46.891Z,135.06
2017-05-06T06:27:16.124Z,134.72
2017-05-06T06:29:45.355Z,136.46
2017-05-06T06:32:15.381Z,134.76
2017-05-06T06:34:44.623Z,135.02
2017-05-06T06:37:13.856Z,133.66
2017-05-06T06:39:43.903Z,138.62
2017-05-06T06:42:13.162Z,139.02
2017-05-06T06:44:43.193Z,134.00
2017-05-06T06:47:13.186Z,136.94
2017-05-06T06:49:43.120Z,142.56
2017-05-06T06:52:13.168Z,135.16
2017-05-06T06:54:42.388Z,132.04
2017-05-06T06:57:12.502Z,133.28
2017-05-06T06:59:42.491Z,135.12
2017-05-06T07:02:11.738Z,133.52
2017-05-06T07:04:41.145Z,132.48
2017-05-06T07:07:10.443Z,133.72
2017-05-06T07:09:39.652Z,132.26
2017-05-06T07:12:09.678Z,133.78
2017-05-06T07:14:39.677Z,133.04
2017-05-06T07:17:08.915Z,131.08
2017-05-06T07:19:38.149Z,134.54
2017-05-06T07:22:07.525Z,132.24
2017-05-06T07:24:36.754Z,136.12
2017-05-06T07:27:06.149Z,134.20
2017-05-06T07:29:36.131Z,137.78
2017-05-06T07:32:05.385Z,138.60
2017-05-06T07:34:35.313Z,136.36
2017-05-06T07:37:05.330Z,137.12
2017-05-06T07:39:35.336Z,132.20
2017-05-06T07:42:06.086Z,139.98
2017-05-06T07:44:36.096Z,134.50
2017-05-06T07:47:06.112Z,140.32
2017-05-06T07:49:36.134Z,140.12
2017-05-06T07:52:06.277Z,141.42
2017-05-06T07:54:35.497Z,144.60
2017-05-06T07:57:04.751Z,142.34
2017-05-06T07:59:34.756Z,150.58
2017-05-06T08:02:04.792Z,148.62
2017-05-06T08:04:35.105Z,150.88
2017-05-06T08:07:05.123Z,149.40
2017-05-06T08:09:35.145Z,145.70
2017-05-06T08:12:05.199Z,149.76
2017-05-06T08:14:35.188Z,147.50
2017-05-06T08:17:04.413Z,146.10
2017-05-06T08:19:35.096Z,144.88
2017-05-06T08:22:05.127Z,141.20
2017-05-06T08:24:35.126Z,142.82
2017-05-06T08:27:05.171Z,141.64
2017-05-06T08:29:35.159Z,141.46
2017-05-06T08:32:05.214Z,145.72
2017-05-06T08:34:34.443Z,139.00
2017-05-06T08:37:03.716Z,144.14
2017-05-06T08:39:33.722Z,143.96
2017-05-06T08:42:03.771Z,143.44
2017-05-06T08:44:33.747Z,143.42
2017-05-06T08:47:03.842Z,141.02
2017-05-06T08:49:33.167Z,140.26
2017-05-06T08:52:02.448Z,387.98
2017-05-06T08:54:32.445Z,697.12
2017-05-06T08:57:02.491Z,655.12
2017-05-06T08:59:31.740Z,586.18
2017-05-06T09:02:01.068Z,548.50
2017-05-06T09:04:31.100Z,506.30
2017-05-06T09:07:01.169Z,492.80
2017-05-06T09:09:30.446Z,459.24
2017-05-06T09:11:59.712Z,914.52
2017-05-06T09:14:29.724Z,917.94
2017-05-06T09:16:59.023Z,865.36
2017-05-06T09:19:29.728Z,798.88
2017-05-06T09:21:59.659Z,773.22
2017-05-06T09:24:29.640Z,735.40
2017-05-06T09:27:00.479Z,702.72
2017-05-06T09:29:29.729Z,668.84
2017-05-06T09:31:58.972Z,639.58
2017-05-06T09:34:28.981Z,617.20
2017-05-06T09:36:59.009Z,591.52
2017-05-06T09:39:28.278Z,590.08
2017-05-06T09:41:58.299Z,561.60
2017-05-06T09:44:27.569Z,547.60
2017-05-06T09:46:56.796Z,591.26
2017-05-06T09:49:26.092Z,985.00
2017-05-06T09:51:55.339Z,917.52
2017-05-06T09:54:25.359Z,873.90
2017-05-06T09:56:55.369Z,844.72
2017-05-06T09:59:25.408Z,834.44
2017-05-06T10:01:54.628Z,813.86
2017-05-06T10:04:23.887Z,802.54
2017-05-06T10:06:53.868Z,784.62
2017-05-06T10:09:23.140Z,776.22
2017-05-06T10:11:53.151Z,766.98
2017-05-06T10:14:22.413Z,739.08
2017-05-06T10:16:52.500Z,723.90
2017-05-06T10:19:21.801Z,706.24
2017-05-06T10:21:51.007Z,860.00
2017-05-06T10:24:21.048Z,807.22
2017-05-06T10:26:51.061Z,796.70
2017-05-06T10:29:21.126Z,769.90
2017-05-06T10:31:50.446Z,768.50
2017-05-06T10:34:19.651Z,760.86
2017-05-06T10:36:48.896Z,749.86
2017-05-06T10:39:18.186Z,735.30
2017-05-06T10:41:47.426Z,729.70
2017-05-06T10:44:16.699Z,717.90
2017-05-06T10:46:45.940Z,709.04
2017-05-06T10:49:15.197Z,682.72
2017-05-06T10:51:44.865Z,656.08
2017-05-06T10:54:14.917Z,599.62
2017-05-06T10:56:44.155Z,552.42
2017-05-06T10:59:13.395Z,475.72
2017-05-06T11:01:43.110Z,415.66
2017-05-06T11:04:12.389Z,385.42
2017-05-06T11:06:41.626Z,319.52
2017-05-06T11:09:11.736Z,292.68
2017-05-06T11:11:41.024Z,244.22
2017-05-06T11:14:10.289Z,232.22
2017-05-06T11:16:39.504Z,198.58
2017-05-06T11:19:08.871Z,183.66
2017-05-06T11:21:38.155Z,176.20
2017-05-06T11:24:07.384Z,159.86
2017-05-06T11:26:36.628Z,150.02
2017-05-06T11:29:05.857Z,147.30
2017-05-06T11:31:36.681Z,136.08
2017-05-06T11:34:06.692Z,135.64
2017-05-06T11:36:36.712Z,133.66
2017-05-06T11:39:05.936Z,182.70
2017-05-06T11:41:35.286Z,721.70
2017-05-06T11:44:05.473Z,994.20
2017-05-06T11:46:35.520Z,699.14
2017-05-06T11:49:04.766Z,636.24
2017-05-06T11:51:34.027Z,530.34
2017-05-06T11:54:03.244Z,531.94
2017-05-06T11:56:32.541Z,418.84
2017-05-06T12:48:53.006Z,133.94
2017-05-06T12:51:22.208Z,134.72
2017-05-06T12:53:51.440Z,161.78
2017-05-06T12:56:21.447Z,133.90
2017-05-06T12:58:50.646Z,128.38
2017-05-06T13:01:20.055Z,129.80
2017-05-06T13:03:49.223Z,127.50
2017-05-06T13:06:18.466Z,126.08
2017-05-06T13:08:48.429Z,124.02
2017-05-06T13:11:18.413Z,134.30
2017-05-06T13:13:48.380Z,141.46
2017-05-06T13:16:17.595Z,147.66
2017-05-06T13:18:46.788Z,151.68
2017-05-06T13:21:16.937Z,158.16
2017-05-06T13:23:46.762Z,163.52
2017-05-06T13:26:16.765Z,165.00
2017-05-06T13:28:46.659Z,159.36
2017-05-06T13:31:15.851Z,179.08
2017-05-06T13:33:45.897Z,163.66
2017-05-06T13:36:16.567Z,156.52
2017-05-06T13:38:45.766Z,150.72
2017-05-06T13:41:15.006Z,150.48
2017-05-06T13:43:44.247Z,146.30
2017-05-06T13:46:13.466Z,141.98
2017-05-06T13:48:43.358Z,141.72
2017-05-06T13:51:12.610Z,136.46
2017-05-06T13:53:42.574Z,132.74
2017-05-06T13:56:12.522Z,139.08
2017-05-06T13:58:42.501Z,131.50
2017-05-06T14:01:12.566Z,130.64
2017-05-06T14:03:42.587Z,131.48
2017-05-06T14:06:12.607Z,126.68
2017-05-06T14:08:41.809Z,128.38
2017-05-06T14:11:11.858Z,127.40
2017-05-06T14:13:41.078Z,130.46
2017-05-06T14:16:10.379Z,119.94
2017-05-06T14:18:39.649Z,123.06
2017-05-06T14:21:08.863Z,115.68
2017-05-06T14:23:39.567Z,120.68
2017-05-06T14:26:08.727Z,119.32
2017-05-06T14:28:37.970Z,115.40
2017-05-06T14:31:07.922Z,460.00
2017-05-06T14:33:37.202Z,613.02
2017-05-06T14:36:06.381Z,652.02
2017-05-06T14:38:36.407Z,570.82
2017-05-06T14:41:05.644Z,570.48
2017-05-06T14:43:36.319Z,565.18
2017-05-06T14:46:05.569Z,547.74
2017-05-06T14:48:35.543Z,534.14
2017-05-06T14:51:04.807Z,535.26
2017-05-06T14:53:34.718Z,999.90
2017-05-06T14:56:04.761Z,999.90
2017-05-06T14:58:34.753Z,942.08
2017-05-06T15:01:04.836Z,881.82
2017-05-06T15:03:34.014Z,858.98
2017-05-06T15:06:03.300Z,832.90
2017-05-06T15:08:32.505Z,812.84
2017-05-06T15:11:01.788Z,791.12
2017-05-06T15:13:31.057Z,759.22
2017-05-06T15:16:00.315Z,748.88
2017-05-06T15:18:30.232Z,726.06
2017-05-06T15:20:59.483Z,715.42
2017-05-06T15:23:29.586Z,999.90
2017-05-06T15:25:59.282Z,985.12
2017-05-06T15:28:28.509Z,943.14
2017-05-06T15:30:58.456Z,889.88
2017-05-06T15:33:27.684Z,851.68
2017-05-06T15:35:56.926Z,835.82
2017-05-06T15:38:26.947Z,789.52
2017-05-06T15:40:56.902Z,749.72
2017-05-06T15:43:26.162Z,731.16
2017-05-06T15:45:56.139Z,693.90
2017-05-06T15:48:55.245Z,702.06
2017-05-06T15:51:25.258Z,644.12
2017-05-06T16:32:16.754Z,158.82
2017-05-06T16:34:45.971Z,178.04
2017-05-06T16:37:15.369Z,164.66
2017-05-06T16:39:42.836Z,164.28
2017-05-06T16:42:09.215Z,161.08
2017-05-06T16:44:36.374Z,150.58
2017-05-06T16:47:03.509Z,172.98
2017-05-06T16:49:29.955Z,157.82
2017-05-06T16:51:57.164Z,146.16
2017-05-06T16:54:23.549Z,151.60
2017-05-06T16:56:49.935Z,144.30
2017-05-06T16:59:16.327Z,152.40
2017-05-06T17:01:42.713Z,143.28
2017-05-06T17:04:09.105Z,139.06
2017-05-06T17:06:36.268Z,190.04
2017-05-06T17:09:03.455Z,137.76
2017-05-06T17:11:29.905Z,133.28
2017-05-06T17:18:49.712Z,120.80
2017-05-06T17:21:16.867Z,134.08
2017-05-06T17:23:44.017Z,127.84
2017-05-06T17:26:10.437Z,130.00
2017-05-06T17:28:37.585Z,124.96
2017-05-06T17:31:04.733Z,131.94
2017-05-06T17:33:31.863Z,132.68
2017-05-06T17:35:58.326Z,152.80
2017-05-06T17:38:25.480Z,148.84
2017-05-06T17:40:52.780Z,132.62
2017-05-06T17:43:19.165Z,144.36
2017-05-06T17:45:45.534Z,137.20
2017-05-06T17:48:11.917Z,131.12
2017-05-06T17:50:38.308Z,147.68
2017-05-06T17:53:04.733Z,125.44
2017-05-06T17:55:31.865Z,142.88
2017-05-06T17:57:58.257Z,132.12
2017-05-06T18:00:25.412Z,125.02
2017-05-06T18:02:52.227Z,123.02
2017-05-06T18:05:19.418Z,119.76
2017-05-06T18:07:46.133Z,119.46
2017-05-06T18:10:13.906Z,117.72
2017-05-06T18:12:41.117Z,135.24
2017-05-06T18:15:08.368Z,123.30
2017-05-06T18:17:34.737Z,111.02
2017-05-06T18:20:01.233Z,110.96
2017-05-06T18:22:27.619Z,111.52
2017-05-06T18:24:54.034Z,110.88
2017-05-06T18:27:20.432Z,113.38
2017-05-06T18:29:46.836Z,116.44
2017-05-06T18:32:13.256Z,115.22
2017-05-06T18:34:39.640Z,112.92
2017-05-06T18:37:07.030Z,126.70
2017-05-06T18:39:34.462Z,112.42
2017-05-06T18:42:01.702Z,113.50
2017-05-06T18:44:29.140Z,112.24
2017-05-06T18:46:56.631Z,114.22
2017-05-06T18:49:24.233Z,109.86
2017-05-06T18:51:50.637Z,110.62
2017-05-06T18:54:17.019Z,109.08
2017-05-06T18:56:43.408Z,109.20
2017-05-06T18:59:10.574Z,111.18
2017-05-06T19:01:37.020Z,111.86
2017-05-06T19:04:03.400Z,107.32
2017-05-06T19:06:29.805Z,107.46
2017-05-06T19:08:56.241Z,106.04
2017-05-06T19:11:23.365Z,105.46
2017-05-06T19:13:49.755Z,106.16
2017-05-06T19:16:16.148Z,108.80
2017-05-06T19:18:44.365Z,105.84
2017-05-06T19:21:11.407Z,106.28
2017-05-06T19:23:37.794Z,113.06
2017-05-06T19:26:04.940Z,105.66
2017-05-06T19:28:31.313Z,105.74
2017-05-06T19:30:57.706Z,107.34
2017-05-06T19:33:24.058Z,108.10
2017-05-06T19:35:50.450Z,102.78
2017-05-06T19:38:19.327Z,111.10
2017-05-06T19:40:46.510Z,119.62
2017-05-06T19:43:13.662Z,107.04
2017-05-06T19:45:40.830Z,102.42
2017-05-06T19:48:08.114Z,110.54
2017-05-06T19:50:34.525Z,105.04
2017-05-06T19:53:00.963Z,106.96
2017-05-06T19:55:27.420Z,104.02
2017-05-06T19:57:55.313Z,108.04
2017-05-06T20:00:21.749Z,107.42
2017-05-06T20:02:48.236Z,104.42
2017-05-06T20:05:15.427Z,106.78
2017-05-06T20:07:42.857Z,105.50
2017-05-06T20:10:09.247Z,104.40
2017-05-06T20:12:35.745Z,106.08
2017-05-06T20:15:02.155Z,106.00
2017-05-06T20:17:29.295Z,103.28
2017-05-06T20:19:55.712Z,102.38
2017-05-06T20:22:22.166Z,104.54
2017-05-06T20:24:48.786Z,104.86
2017-05-06T20:27:15.169Z,106.14
2017-05-06T20:29:43.523Z,104.00
2017-05-06T20:32:10.132Z,104.76
2017-05-06T20:34:36.833Z,101.88
2017-05-06T20:37:03.964Z,108.60
2017-05-06T20:39:31.213Z,100.28
2017-05-06T20:41:58.372Z,100.04
2017-05-06T20:44:25.584Z,101.08
2017-05-06T20:46:51.983Z,105.58
2017-05-06T20:49:19.161Z,105.06
2017-05-06T20:51:46.405Z,103.80
2017-05-06T20:54:12.788Z,102.82
2017-05-06T20:56:39.982Z,104.56
2017-05-06T20:59:06.418Z,106.26
2017-05-06T21:01:32.809Z,106.52
2017-05-06T21:03:59.991Z,103.40
2017-05-06T21:06:26.377Z,100.74
2017-05-06T21:08:52.807Z,105.26
2017-05-06T21:11:20.000Z,103.94
2017-05-06T21:13:46.420Z,110.32
2017-05-06T21:16:12.807Z,103.62
2017-05-06T21:18:39.190Z,113.70
2017-05-06T21:21:05.621Z,101.94
2017-05-06T21:23:31.995Z,99.80
2017-05-06T21:25:58.419Z,103.36
2017-05-06T21:28:24.887Z,112.84
2017-05-06T21:30:52.053Z,101.56
2017-05-06T21:33:18.567Z,105.58
2017-05-06T21:35:44.986Z,108.92
2017-05-06T21:38:12.146Z,104.56
2017-05-06T21:40:38.526Z,102.52
2017-05-06T21:43:04.925Z,113.64
2017-05-06T21:45:31.346Z,100.92
2017-05-06T21:47:58.951Z,102.36
2017-05-06T21:50:25.335Z,101.28
2017-05-06T21:52:52.526Z,100.92
2017-05-06T21:55:18.913Z,102.74
2017-05-06T21:57:45.443Z,102.40
2017-05-06T22:00:13.801Z,111.28
2017-05-06T22:02:40.189Z,103.70
2017-05-06T22:05:07.343Z,105.98
2017-05-06T22:07:33.743Z,110.16
2017-05-06T22:10:00.255Z,100.40
2017-05-06T22:12:27.412Z,99.48
2017-05-06T22:14:54.538Z,98.88
2017-05-06T22:17:20.934Z,102.36
2017-05-06T22:19:47.348Z,102.98
2017-05-06T22:22:13.762Z,106.82
2017-05-06T22:24:40.154Z,100.88
2017-05-06T22:27:06.535Z,108.54
2017-05-06T22:29:33.079Z,101.04
2017-05-06T22:31:59.460Z,104.72
2017-05-06T22:34:27.344Z,99.88
2017-05-06T22:36:54.548Z,100.88
2017-05-06T22:39:21.702Z,100.14
2017-05-06T22:41:48.106Z,99.94
2017-05-06T22:44:14.488Z,97.48
2017-05-06T22:46:41.026Z,102.16
2017-05-06T22:49:07.481Z,98.54
2017-05-06T22:51:34.639Z,100.36
2017-05-06T22:54:01.076Z,106.68
2017-05-06T22:56:27.445Z,97.20
2017-05-06T22:58:53.835Z,98.26
2017-05-06T23:01:20.980Z,97.60
2017-05-06T23:03:47.399Z,100.76
2017-05-06T23:06:14.563Z,100.84
2017-05-06T23:08:40.934Z,101.72
2017-05-06T23:11:07.325Z,97.40
2017-05-06T23:13:33.836Z,97.94
2017-05-06T23:16:01.085Z,99.08
2017-05-06T23:18:27.457Z,98.74
2017-05-06T23:20:53.866Z,106.94
2017-05-06T23:23:21.035Z,98.24
2017-05-06T23:25:47.434Z,101.90
2017-05-06T23:28:14.608Z,105.02
2017-05-06T23:30:41.009Z,100.68
2017-05-06T23:33:08.179Z,101.78
2017-05-06T23:35:35.355Z,102.14
2017-05-06T23:38:01.772Z,98.12
2017-05-06T23:40:28.145Z,98.08
2017-05-06T23:42:56.072Z,97.30
2017-05-06T23:45:22.469Z,99.06
2017-05-06T23:47:48.926Z,103.58
2017-05-06T23:50:15.646Z,101.00
2017-05-06T23:52:42.804Z,97.16
2017-05-06T23:55:09.969Z,97.24
2017-05-06T23:57:36.335Z,100.88
